Wetterdaten: Montag, 04.04.2016
Datum Zeit Auen-Temp. Temp gefhlt Luftfeuchte Luftdruck Regen Wind Richtung Richtung Sonnenschein Taupunkt Windben
04.04.2016 00:00 14,1 C 14,1 C 46 % 1010,6 hPa 0,0 mm 0,3 km/h (0 Bft) O-SO 112 0 min 2,7 C 0,0 km/h (0 Bft)
04.04.2016 00:05 14,3 C 14,2 C 45 % 1010,6 hPa 0,0 mm 0,3 km/h (0 Bft) SO 135 0 min 2,5 C 0,0 km/h (0 Bft)
04.04.2016 00:10 13,9 C 14,1 C 45 % 1010,4 hPa 0,0 mm 0,3 km/h (0 Bft) NW 315 0 min 2,2 C 0,0 km/h (0 Bft)
04.04.2016 00:15 14,4 C 14,3 C 45 % 1010,4 hPa 0,0 mm 0,0 km/h (0 Bft) SO 135 0 min 2,6 C 0,0 km/h (0 Bft)
04.04.2016 00:18 14,6 C 14,5 C 45 % 1010,4 hPa 0,0 mm 0,3 km/h (0 Bft) O-NO 67 0 min 2,8 C 5,1 km/h (1 Bft)
04.04.2016 00:20 14,6 C 14,5 C 45 % 1010,4 hPa 0,0 mm 0,3 km/h (0 Bft) O-NO 67 0 min 2,8 C 5,1 km/h (1 Bft)
04.04.2016 00:25 14,3 C 14,3 C 45 % 1010,4 hPa 0,0 mm 0,9 km/h (0 Bft) N-NW 337 0 min 2,5 C 0,0 km/h (0 Bft)
04.04.2016 00:30 14,5 C 14,4 C 45 % 1010,2 hPa 0,0 mm 1,2 km/h (1 Bft) O-SO 112 0 min 2,7 C 0,0 km/h (0 Bft)
04.04.2016 00:35 14,3 C 14,2 C 44 % 1010,2 hPa 0,0 mm 0,6 km/h (0 Bft) SO 135 0 min 2,2 C 0,0 km/h (0 Bft)
04.04.2016 00:40 14,0 C 14,0 C 45 % 1010,2 hPa 0,0 mm 0,0 km/h (0 Bft) O 90 0 min 2,3 C 0,0 km/h (0 Bft)
04.04.2016 00:45 13,9 C 13,9 C 45 % 1010,2 hPa 0,0 mm 0,9 km/h (0 Bft) S 180 0 min 2,2 C 6,9 km/h (2 Bft)
04.04.2016 00:50 13,9 C 13,9 C 45 % 1010,0 hPa 0,0 mm 1,2 km/h (1 Bft) O-NO 67 0 min 2,2 C 0,0 km/h (0 Bft)
04.04.2016 00:55 14,1 C 14,0 C 45 % 1010,0 hPa 0,0 mm 0,9 km/h (0 Bft) NO 45 0 min 2,4 C 0,0 km/h (0 Bft)
04.04.2016 01:00 13,6 C 13,8 C 45 % 1010,0 hPa 0,0 mm 0,6 km/h (0 Bft) NO 45 0 min 1,9 C 0,0 km/h (0 Bft)
04.04.2016 01:05 13,7 C 13,7 C 45 % 1010,0 hPa 0,0 mm 0,0 km/h (0 Bft) N-NO 22 0 min 2,0 C 0,0 km/h (0 Bft)
04.04.2016 01:10 13,4 C 13,6 C 45 % 1009,9 hPa 0,0 mm 0,0 km/h (0 Bft) N-NO 22 0 min 1,7 C 0,0 km/h (0 Bft)
04.04.2016 01:15 13,9 C 13,7 C 45 % 1009,9 hPa 0,0 mm 0,0 km/h (0 Bft) N-NO 22 0 min 2,2 C 0,0 km/h (0 Bft)
04.04.2016 01:20 13,5 C 13,5 C 45 % 1009,9 hPa 0,0 mm 0,0 km/h (0 Bft) N-NO 22 0 min 1,8 C 0,0 km/h (0 Bft)
04.04.2016 01:25 13,3 C 13,3 C 45 % 1009,9 hPa 0,0 mm 0,0 km/h (0 Bft) N-NO 22 0 min 1,6 C 0,0 km/h (0 Bft)
04.04.2016 01:30 13,2 C 13,2 C 45 % 1009,9 hPa 0,0 mm 0,0 km/h (0 Bft) N-NO 22 0 min 1,5 C 0,0 km/h (0 Bft)
04.04.2016 01:35 13,7 C 13,5 C 45 % 1009,9 hPa 0,0 mm 0,0 km/h (0 Bft) N-NO 22 0 min 2,0 C 0,0 km/h (0 Bft)
04.04.2016 01:40 13,6 C 13,5 C 45 % 1009,9 hPa 0,0 mm 0,0 km/h (0 Bft) N-NO 22 0 min 1,9 C 0,0 km/h (0 Bft)
04.04.2016 01:45 13,3 C 13,3 C 45 % 1009,9 hPa 0,0 mm 0,0 km/h (0 Bft) N-NO 22 0 min 1,6 C 0,0 km/h (0 Bft)
04.04.2016 01:50 13,0 C 13,2 C 46 % 1009,8 hPa 0,0 mm 0,0 km/h (0 Bft) N-NO 22 0 min 1,7 C 0,0 km/h (0 Bft)
04.04.2016 01:55 13,1 C 13,1 C 46 % 1009,8 hPa 0,0 mm 0,0 km/h (0 Bft) N-NO 22 0 min 1,7 C 0,0 km/h (0 Bft)
04.04.2016 02:00 13,1 C 13,0 C 46 % 1009,8 hPa 0,0 mm 0,0 km/h (0 Bft) N-NO 22 0 min 1,7 C 0,0 km/h (0 Bft)
04.04.2016 02:05 13,0 C 13,0 C 46 % 1009,8 hPa 0,0 mm 0,0 km/h (0 Bft) N-NO 22 0 min 1,7 C 0,0 km/h (0 Bft)
04.04.2016 02:10 13,0 C 13,0 C 46 % 1009,8 hPa 0,0 mm 0,0 km/h (0 Bft) N-NO 22 0 min 1,7 C 0,0 km/h (0 Bft)
04.04.2016 02:15 13,1 C 13,0 C 46 % 1009,8 hPa 0,0 mm 0,0 km/h (0 Bft) W 270 0 min 1,7 C 0,0 km/h (0 Bft)
04.04.2016 02:20 13,0 C 13,0 C 47 % 1009,8 hPa 0,0 mm 0,3 km/h (0 Bft) NW 315 0 min 2,0 C 0,0 km/h (0 Bft)
04.04.2016 02:25 12,9 C 12,8 C 47 % 1009,8 hPa 0,0 mm 0,3 km/h (0 Bft) O-NO 67 0 min 1,9 C 0,0 km/h (0 Bft)
04.04.2016 02:30 12,7 C 12,7 C 47 % 1009,5 hPa 0,0 mm 0,0 km/h (0 Bft) W-NW 292 0 min 1,7 C 0,0 km/h (0 Bft)
04.04.2016 02:35 12,8 C 12,7 C 47 % 1009,5 hPa 0,0 mm 0,3 km/h (0 Bft) S 180 0 min 1,8 C 0,0 km/h (0 Bft)
04.04.2016 02:40 13,1 C 12,9 C 47 % 1009,5 hPa 0,0 mm 0,3 km/h (0 Bft) S 180 0 min 2,0 C 0,0 km/h (0 Bft)
04.04.2016 02:45 13,3 C 13,0 C 47 % 1009,5 hPa 0,0 mm 0,3 km/h (0 Bft) S 180 0 min 2,2 C 0,0 km/h (0 Bft)
04.04.2016 02:50 13,3 C 13,0 C 48 % 1009,4 hPa 0,0 mm 0,3 km/h (0 Bft) SW 225 0 min 2,5 C 7,2 km/h (2 Bft)
04.04.2016 02:55 12,0 C 12,3 C 49 % 1009,4 hPa 0,0 mm 0,6 km/h (0 Bft) W-NW 292 0 min 1,6 C 0,0 km/h (0 Bft)
04.04.2016 03:00 11,2 C 11,9 C 52 % 1009,4 hPa 0,0 mm 0,9 km/h (0 Bft) NO 45 0 min 1,7 C 0,0 km/h (0 Bft)
04.04.2016 03:05 10,9 C 11,2 C 56 % 1009,4 hPa 0,0 mm 0,3 km/h (0 Bft) O-NO 67 0 min 2,5 C 0,0 km/h (0 Bft)
04.04.2016 03:10 11,0 C 11,0 C 56 % 1009,3 hPa 0,0 mm 0,0 km/h (0 Bft) O-NO 67 0 min 2,6 C 0,0 km/h (0 Bft)
04.04.2016 03:15 10,8 C 10,8 C 55 % 1009,3 hPa 0,0 mm 0,0 km/h (0 Bft) O-NO 67 0 min 2,1 C 0,0 km/h (0 Bft)
04.04.2016 03:18 10,9 C 10,9 C 55 % 1009,3 hPa 0,0 mm 0,0 km/h (0 Bft) O-NO 67 0 min 2,2 C 0,0 km/h (0 Bft)
04.04.2016 03:21 10,9 C 10,9 C 55 % 1009,3 hPa 0,0 mm 0,0 km/h (0 Bft) O-NO 67 0 min 2,2 C 0,0 km/h (0 Bft)
04.04.2016 03:25 11,1 C 11,0 C 55 % 1009,3 hPa 0,0 mm 0,3 km/h (0 Bft) W-NW 292 0 min 2,4 C 0,0 km/h (0 Bft)
04.04.2016 03:30 10,7 C 10,8 C 56 % 1009,2 hPa 0,0 mm 0,3 km/h (0 Bft) W-NW 292 0 min 2,3 C 0,0 km/h (0 Bft)
04.04.2016 03:35 10,5 C 10,8 C 57 % 1009,2 hPa 0,0 mm 0,3 km/h (0 Bft) N-NO 22 0 min 2,3 C 0,0 km/h (0 Bft)
04.04.2016 03:40 10,8 C 10,8 C 58 % 1009,2 hPa 0,0 mm 0,0 km/h (0 Bft) NW 315 0 min 2,9 C 0,0 km/h (0 Bft)
04.04.2016 03:45 10,5 C 10,8 C 57 % 1009,2 hPa 0,0 mm 0,3 km/h (0 Bft) W-NW 292 0 min 2,3 C 0,0 km/h (0 Bft)
04.04.2016 03:50 10,5 C 10,8 C 58 % 1009,2 hPa 0,0 mm 0,6 km/h (0 Bft) S 180 0 min 2,6 C 0,0 km/h (0 Bft)
04.04.2016 03:55 10,7 C 10,8 C 58 % 1009,2 hPa 0,0 mm 0,6 km/h (0 Bft) NW 315 0 min 2,8 C 0,0 km/h (0 Bft)
04.04.2016 04:00 11,3 C 11,5 C 57 % 1009,2 hPa 0,0 mm 0,0 km/h (0 Bft) O-SO 112 0 min 3,1 C 0,0 km/h (0 Bft)
04.04.2016 04:05 11,5 C 11,5 C 57 % 1009,2 hPa 0,0 mm 0,0 km/h (0 Bft) S-SO 157 0 min 3,3 C 0,0 km/h (0 Bft)
04.04.2016 04:10 11,9 C 11,9 C 57 % 1008,9 hPa 0,0 mm 0,0 km/h (0 Bft) N-NW 337 0 min 3,7 C 0,0 km/h (0 Bft)
04.04.2016 04:15 11,6 C 11,7 C 56 % 1008,9 hPa 0,0 mm 1,2 km/h (1 Bft) W 270 0 min 3,1 C 4,2 km/h (1 Bft)
04.04.2016 04:20 11,5 C 11,5 C 57 % 1008,9 hPa 0,0 mm 1,2 km/h (1 Bft) W 270 0 min 3,3 C 0,0 km/h (0 Bft)
04.04.2016 04:25 12,0 C 12,2 C 56 % 1008,9 hPa 0,0 mm 0,9 km/h (0 Bft) SO 135 0 min 3,5 C 0,0 km/h (0 Bft)
04.04.2016 04:30 12,6 C 12,6 C 56 % 1008,9 hPa 0,0 mm 0,6 km/h (0 Bft) SO 135 0 min 4,1 C 0,0 km/h (0 Bft)
04.04.2016 04:35 12,4 C 12,5 C 55 % 1008,9 hPa 0,0 mm 0,3 km/h (0 Bft) SO 135 0 min 3,6 C 0,0 km/h (0 Bft)
04.04.2016 04:40 11,8 C 12,5 C 55 % 1008,9 hPa 0,0 mm 0,0 km/h (0 Bft) SO 135 0 min 3,1 C 0,0 km/h (0 Bft)
04.04.2016 04:45 11,4 C 12,1 C 56 % 1008,9 hPa 0,0 mm 0,0 km/h (0 Bft) SO 135 0 min 2,9 C 0,0 km/h (0 Bft)
04.04.2016 04:50 11,2 C 12,1 C 56 % 1009,1 hPa 0,0 mm 0,0 km/h (0 Bft) SO 135 0 min 2,8 C 0,0 km/h (0 Bft)
04.04.2016 04:55 11,1 C 12,0 C 57 % 1009,1 hPa 0,0 mm 0,0 km/h (0 Bft) SO 135 0 min 2,9 C 0,0 km/h (0 Bft)
04.04.2016 05:00 11,3 C 12,1 C 57 % 1009,1 hPa 0,0 mm 0,0 km/h (0 Bft) SO 135 0 min 3,1 C 0,0 km/h (0 Bft)
04.04.2016 05:05 11,7 C 12,5 C 56 % 1009,1 hPa 0,0 mm 0,0 km/h (0 Bft) SO 135 0 min 3,2 C 0,0 km/h (0 Bft)
04.04.2016 05:10 12,1 C 12,7 C 56 % 1008,9 hPa 0,0 mm 0,3 km/h (0 Bft) O-NO 67 0 min 3,6 C 3,0 km/h (1 Bft)
04.04.2016 05:15 12,7 C 13,1 C 55 % 1008,9 hPa 0,0 mm 0,3 km/h (0 Bft) O-NO 67 0 min 3,9 C 0,0 km/h (0 Bft)
04.04.2016 05:20 12,6 C 13,1 C 55 % 1008,9 hPa 0,0 mm 0,3 km/h (0 Bft) N-NO 22 0 min 3,8 C 0,0 km/h (0 Bft)
04.04.2016 05:25 13,0 C 13,2 C 53 % 1008,9 hPa 0,0 mm 0,0 km/h (0 Bft) O-SO 112 0 min 3,6 C 0,0 km/h (0 Bft)
04.04.2016 05:30 12,8 C 13,2 C 52 % 1008,9 hPa 0,0 mm 0,0 km/h (0 Bft) NO 45 0 min 3,2 C 0,0 km/h (0 Bft)
04.04.2016 05:35 12,5 C 12,9 C 52 % 1008,9 hPa 0,0 mm 0,0 km/h (0 Bft) N-NO 22 0 min 2,9 C 0,0 km/h (0 Bft)
04.04.2016 05:40 13,0 C 13,0 C 52 % 1008,9 hPa 0,0 mm 0,0 km/h (0 Bft) O-NO 67 0 min 3,4 C 0,0 km/h (0 Bft)
04.04.2016 05:45 13,3 C 13,2 C 51 % 1008,9 hPa 0,0 mm 0,0 km/h (0 Bft) O-NO 67 0 min 3,4 C 3,3 km/h (1 Bft)
04.04.2016 05:50 12,9 C 12,9 C 51 % 1008,7 hPa 0,0 mm 0,0 km/h (0 Bft) O 90 0 min 3,0 C 0,0 km/h (0 Bft)
04.04.2016 05:55 13,4 C 13,2 C 50 % 1008,7 hPa 0,0 mm 0,0 km/h (0 Bft) W-SW 247 0 min 3,2 C 3,9 km/h (1 Bft)
04.04.2016 06:00 13,3 C 13,2 C 50 % 1008,7 hPa 0,0 mm 0,0 km/h (0 Bft) O-NO 67 0 min 3,1 C 0,0 km/h (0 Bft)
04.04.2016 06:05 13,2 C 13,1 C 50 % 1008,7 hPa 0,0 mm 0,0 km/h (0 Bft) O-SO 112 0 min 3,0 C 9,2 km/h (2 Bft)
04.04.2016 06:10 13,2 C 13,2 C 50 % 1008,8 hPa 0,0 mm 0,9 km/h (0 Bft) S 180 0 min 3,0 C 0,0 km/h (0 Bft)
04.04.2016 06:15 12,5 C 13,0 C 51 % 1008,8 hPa 0,0 mm 1,8 km/h (1 Bft) W-NW 292 0 min 2,6 C 0,0 km/h (0 Bft)
04.04.2016 06:20 12,1 C 12,6 C 52 % 1008,8 hPa 0,0 mm 2,1 km/h (1 Bft) S 180 0 min 2,5 C 5,1 km/h (1 Bft)
04.04.2016 06:22 12,1 C 12,6 C 52 % 1008,8 hPa 0,0 mm 2,1 km/h (1 Bft) S 180 0 min 2,5 C 5,1 km/h (1 Bft)
04.04.2016 06:25 12,3 C 12,3 C 53 % 1008,8 hPa 0,0 mm 3,3 km/h (1 Bft) S-SO 157 0 min 3,0 C 4,5 km/h (1 Bft)
04.04.2016 06:30 12,4 C 12,3 C 53 % 1009,0 hPa 0,0 mm 3,3 km/h (1 Bft) SW 225 0 min 3,1 C 4,5 km/h (1 Bft)
04.04.2016 06:35 12,0 C 12,1 C 54 % 1009,0 hPa 0,0 mm 2,4 km/h (1 Bft) SO 135 0 min 3,0 C 4,2 km/h (1 Bft)
04.04.2016 06:40 11,3 C 11,9 C 55 % 1009,0 hPa 0,0 mm 1,8 km/h (1 Bft) N-NO 22 0 min 2,6 C 0,0 km/h (0 Bft)
04.04.2016 06:45 11,7 C 11,6 C 56 % 1009,0 hPa 0,0 mm 0,3 km/h (0 Bft) W 270 0 min 3,2 C 0,0 km/h (0 Bft)
04.04.2016 06:50 12,2 C 11,9 C 55 % 1009,1 hPa 0,0 mm 0,3 km/h (0 Bft) S 180 0 min 3,4 C 0,0 km/h (0 Bft)
04.04.2016 06:55 12,3 C 12,1 C 54 % 1009,1 hPa 0,0 mm 2,1 km/h (1 Bft) S-SO 157 0 min 3,3 C 3,6 km/h (1 Bft)
04.04.2016 07:00 12,5 C 12,4 C 54 % 1009,1 hPa 0,0 mm 3,6 km/h (1 Bft) S 180 0 min 3,5 C 5,1 km/h (1 Bft)
04.04.2016 07:05 12,3 C 12,3 C 54 % 1009,1 hPa 0,0 mm 3,9 km/h (1 Bft) S-SO 157 0 min 3,3 C 3,3 km/h (1 Bft)
04.04.2016 07:10 11,8 C 12,2 C 55 % 1009,4 hPa 0,0 mm 3,0 km/h (1 Bft) S-SO 157 0 min 3,1 C 4,2 km/h (1 Bft)
04.04.2016 07:15 10,6 C 11,5 C 57 % 1009,4 hPa 0,0 mm 1,2 km/h (1 Bft) O-SO 112 0 min 2,4 C 0,0 km/h (0 Bft)
04.04.2016 07:20 11,1 C 11,3 C 57 % 1009,4 hPa 0,0 mm 0,6 km/h (0 Bft) SO 135 0 min 2,9 C 6,9 km/h (2 Bft)
04.04.2016 07:25 10,7 C 11,1 C 58 % 1009,4 hPa 0,0 mm 1,2 km/h (1 Bft) S-SO 157 0 min 2,8 C 3,6 km/h (1 Bft)
04.04.2016 07:30 10,8 C 11,2 C 58 % 1009,6 hPa 0,0 mm 1,8 km/h (1 Bft) O-SO 112 0 min 2,9 C 0,0 km/h (0 Bft)
04.04.2016 07:35 10,4 C 11,1 C 59 % 1009,6 hPa 0,0 mm 2,4 km/h (1 Bft) NW 315 0 min 2,7 C 0,0 km/h (0 Bft)
04.04.2016 07:40 10,2 C 10,9 C 58 % 1009,6 hPa 0,0 mm 1,5 km/h (1 Bft) NW 315 0 min 2,3 C 0,0 km/h (0 Bft)
04.04.2016 07:45 10,2 C 10,6 C 59 % 1009,6 hPa 0,0 mm 0,0 km/h (0 Bft) SO 135 0 min 2,6 C 0,0 km/h (0 Bft)
04.04.2016 07:50 10,1 C 10,6 C 59 % 1009,7 hPa 0,0 mm 0,0 km/h (0 Bft) O-SO 112 0 min 2,5 C 0,0 km/h (0 Bft)
04.04.2016 07:55 10,1 C 10,5 C 59 % 1009,7 hPa 0,0 mm 0,0 km/h (0 Bft) SO 135 0 min 2,5 C 0,0 km/h (0 Bft)
04.04.2016 08:00 10,0 C 10,5 C 59 % 1009,7 hPa 0,0 mm 0,0 km/h (0 Bft) W 270 0 min 2,4 C 0,0 km/h (0 Bft)
04.04.2016 08:05 10,0 C 10,6 C 59 % 1009,7 hPa 0,0 mm 0,0 km/h (0 Bft) O-NO 67 0 min 2,4 C 0,0 km/h (0 Bft)
04.04.2016 08:10 10,0 C 10,7 C 59 % 1009,8 hPa 0,0 mm 0,0 km/h (0 Bft) SO 135 0 min 2,4 C 0,0 km/h (0 Bft)
04.04.2016 08:15 10,1 C 11,0 C 60 % 1009,8 hPa 0,0 mm 0,0 km/h (0 Bft) S-SO 157 0 min 2,7 C 0,0 km/h (0 Bft)
04.04.2016 08:20 10,3 C 11,2 C 60 % 1009,8 hPa 0,0 mm 0,0 km/h (0 Bft) NW 315 0 min 2,9 C 0,0 km/h (0 Bft)
04.04.2016 08:25 10,5 C 11,4 C 61 % 1009,8 hPa 0,0 mm 0,0 km/h (0 Bft) O-SO 112 0 min 3,3 C 0,0 km/h (0 Bft)
04.04.2016 08:30 10,6 C 11,7 C 61 % 1010,1 hPa 0,0 mm 0,0 km/h (0 Bft) O-SO 112 0 min 3,4 C 0,0 km/h (0 Bft)
04.04.2016 08:35 10,8 C 12,0 C 62 % 1010,1 hPa 0,0 mm 0,0 km/h (0 Bft) NW 315 0 min 3,8 C 0,0 km/h (0 Bft)
04.04.2016 08:40 11,0 C 12,3 C 61 % 1010,1 hPa 0,0 mm 0,0 km/h (0 Bft) NW 315 0 min 3,8 C 0,0 km/h (0 Bft)
04.04.2016 08:45 11,3 C 13,4 C 62 % 1010,1 hPa 0,0 mm 0,0 km/h (0 Bft) NW 315 0 min 4,3 C 0,0 km/h (0 Bft)
04.04.2016 08:50 11,6 C 14,0 C 62 % 1010,1 hPa 0,0 mm 0,0 km/h (0 Bft) NW 315 0 min 4,6 C 0,0 km/h (0 Bft)
04.04.2016 08:55 11,9 C 14,5 C 62 % 1010,1 hPa 0,0 mm 0,0 km/h (0 Bft) NW 315 0 min 4,9 C 0,0 km/h (0 Bft)
04.04.2016 09:00 12,1 C 14,7 C 62 % 1010,1 hPa 0,0 mm 0,0 km/h (0 Bft) NW 315 0 min 5,0 C 0,0 km/h (0 Bft)
04.04.2016 09:05 12,9 C 15,8 C 62 % 1010,1 hPa 0,0 mm 0,0 km/h (0 Bft) NW 315 5 min 5,8 C 0,0 km/h (0 Bft)
04.04.2016 09:10 13,6 C 17,4 C 61 % 1010,1 hPa 0,0 mm 0,0 km/h (0 Bft) NW 315 5 min 6,2 C 0,0 km/h (0 Bft)
04.04.2016 09:15 14,0 C 18,9 C 60 % 1010,1 hPa 0,0 mm 0,0 km/h (0 Bft) NW 315 5 min 6,4 C 0,0 km/h (0 Bft)
04.04.2016 09:20 14,4 C 20,0 C 59 % 1010,1 hPa 0,0 mm 0,0 km/h (0 Bft) NW 315 5 min 6,5 C 0,0 km/h (0 Bft)
04.04.2016 09:23 14,4 C 20,0 C 59 % 1010,1 hPa 0,0 mm 0,0 km/h (0 Bft) NW 315 3 min 6,5 C 0,0 km/h (0 Bft)
04.04.2016 09:25 14,4 C 20,3 C 59 % 1010,1 hPa 0,0 mm 0,0 km/h (0 Bft) NW 315 2 min 6,5 C 0,0 km/h (0 Bft)
04.04.2016 09:30 14,9 C 20,3 C 58 % 1010,6 hPa 0,0 mm 0,0 km/h (0 Bft) NW 315 5 min 6,7 C 0,0 km/h (0 Bft)
04.04.2016 09:35 15,2 C 20,3 C 57 % 1010,6 hPa 0,0 mm 0,0 km/h (0 Bft) NW 315 5 min 6,7 C 0,0 km/h (0 Bft)
04.04.2016 09:40 15,2 C 20,5 C 56 % 1010,6 hPa 0,0 mm 0,0 km/h (0 Bft) NW 315 5 min 6,5 C 0,0 km/h (0 Bft)
04.04.2016 09:45 15,6 C 21,0 C 56 % 1010,6 hPa 0,0 mm 0,0 km/h (0 Bft) NW 315 5 min 6,9 C 0,0 km/h (0 Bft)
04.04.2016 09:50 16,1 C 22,3 C 53 % 1010,7 hPa 0,0 mm 0,6 km/h (0 Bft) N-NO 22 5 min 6,5 C 3,3 km/h (1 Bft)
04.04.2016 09:55 16,6 C 23,0 C 52 % 1010,7 hPa 0,0 mm 0,9 km/h (0 Bft) SO 135 5 min 6,7 C 0,0 km/h (0 Bft)
04.04.2016 10:00 17,2 C 24,1 C 51 % 1010,7 hPa 0,0 mm 0,6 km/h (0 Bft) O-NO 67 5 min 7,0 C 0,0 km/h (0 Bft)
04.04.2016 10:05 18,1 C 25,1 C 49 % 1010,7 hPa 0,0 mm 0,6 km/h (0 Bft) O-NO 67 5 min 7,2 C 3,3 km/h (1 Bft)
04.04.2016 10:10 18,0 C 25,1 C 49 % 1011,2 hPa 0,0 mm 2,1 km/h (1 Bft) NO 45 5 min 7,1 C 0,0 km/h (0 Bft)
04.04.2016 10:15 18,1 C 25,1 C 49 % 1011,2 hPa 0,0 mm 3,6 km/h (1 Bft) NW 315 5 min 7,2 C 3,6 km/h (1 Bft)
04.04.2016 10:20 18,0 C 25,3 C 48 % 1011,2 hPa 0,0 mm 3,6 km/h (1 Bft) W-NW 292 5 min 6,8 C 7,5 km/h (2 Bft)
04.04.2016 10:25 18,0 C 24,6 C 48 % 1011,2 hPa 0,0 mm 5,4 km/h (1 Bft) NW 315 5 min 6,8 C 12,2 km/h (2 Bft)
04.04.2016 10:30 18,3 C 24,7 C 48 % 1011,7 hPa 0,0 mm 5,7 km/h (1 Bft) NW 315 5 min 7,1 C 8,9 km/h (2 Bft)
04.04.2016 10:35 18,5 C 24,6 C 47 % 1011,7 hPa 0,0 mm 4,2 km/h (1 Bft) N-NW 337 5 min 7,0 C 0,0 km/h (0 Bft)
04.04.2016 10:40 18,7 C 24,8 C 47 % 1011,7 hPa 0,0 mm 4,8 km/h (1 Bft) W 270 5 min 7,2 C 9,5 km/h (2 Bft)
04.04.2016 10:45 18,5 C 24,2 C 47 % 1011,7 hPa 0,0 mm 6,3 km/h (2 Bft) N 360 5 min 7,0 C 15,2 km/h (3 Bft)
04.04.2016 10:50 18,8 C 24,3 C 47 % 1011,9 hPa 0,0 mm 6,3 km/h (2 Bft) N-NO 22 5 min 7,2 C 8,3 km/h (2 Bft)
04.04.2016 10:55 19,1 C 24,6 C 46 % 1011,9 hPa 0,0 mm 5,1 km/h (1 Bft) W-SW 247 5 min 7,2 C 8,0 km/h (2 Bft)
04.04.2016 11:00 19,3 C 25,0 C 46 % 1011,9 hPa 0,0 mm 5,1 km/h (1 Bft) N 360 5 min 7,4 C 9,8 km/h (2 Bft)
04.04.2016 11:05 19,7 C 25,1 C 46 % 1011,9 hPa 0,0 mm 4,8 km/h (1 Bft) N-NO 22 5 min 7,8 C 4,5 km/h (1 Bft)
04.04.2016 11:10 19,5 C 25,1 C 45 % 1011,8 hPa 0,0 mm 6,3 km/h (2 Bft) W 270 5 min 7,2 C 8,3 km/h (2 Bft)
04.04.2016 11:15 18,8 C 23,4 C 45 % 1011,8 hPa 0,0 mm 6,9 km/h (2 Bft) W-NW 292 5 min 6,6 C 18,2 km/h (3 Bft)
04.04.2016 11:20 18,3 C 22,1 C 46 % 1011,8 hPa 0,0 mm 4,5 km/h (1 Bft) W 270 5 min 6,5 C 0,0 km/h (0 Bft)
04.04.2016 11:25 17,5 C 19,9 C 46 % 1011,8 hPa 0,0 mm 3,6 km/h (1 Bft) N-NO 22 5 min 5,8 C 9,8 km/h (2 Bft)
04.04.2016 11:30 17,1 C 18,7 C 46 % 1011,5 hPa 0,0 mm 4,5 km/h (1 Bft) N-NW 337 0 min 5,4 C 8,3 km/h (2 Bft)
04.04.2016 11:35 17,0 C 17,8 C 47 % 1011,5 hPa 0,0 mm 3,9 km/h (1 Bft) NO 45 0 min 5,6 C 4,5 km/h (1 Bft)
04.04.2016 11:40 17,0 C 17,6 C 47 % 1011,5 hPa 0,0 mm 4,5 km/h (1 Bft) NW 315 0 min 5,6 C 5,1 km/h (1 Bft)
04.04.2016 11:45 17,1 C 17,7 C 48 % 1011,5 hPa 0,0 mm 4,5 km/h (1 Bft) NO 45 0 min 6,0 C 0,0 km/h (0 Bft)
04.04.2016 11:50 17,2 C 18,2 C 48 % 1011,1 hPa 0,0 mm 4,8 km/h (1 Bft) NW 315 0 min 6,1 C 5,4 km/h (1 Bft)
04.04.2016 11:55 17,9 C 19,3 C 48 % 1011,1 hPa 0,0 mm 5,1 km/h (1 Bft) W-NW 292 0 min 6,7 C 8,0 km/h (2 Bft)
04.04.2016 12:00 18,2 C 19,9 C 47 % 1011,1 hPa 0,0 mm 5,4 km/h (1 Bft) W 270 0 min 6,7 C 5,4 km/h (1 Bft)
04.04.2016 12:05 18,6 C 20,7 C 47 % 1011,1 hPa 0,0 mm 8,0 km/h (2 Bft) N-NW 337 0 min 7,1 C 12,5 km/h (3 Bft)
04.04.2016 12:10 19,0 C 21,3 C 47 % 1010,7 hPa 0,0 mm 8,3 km/h (2 Bft) NW 315 0 min 7,4 C 14,9 km/h (3 Bft)
04.04.2016 12:15 19,9 C 23,6 C 44 % 1010,7 hPa 0,0 mm 10,4 km/h (2 Bft) N-NO 22 0 min 7,3 C 18,5 km/h (3 Bft)
04.04.2016 12:20 20,1 C 24,9 C 44 % 1010,7 hPa 0,0 mm 11,0 km/h (2 Bft) NW 315 5 min 7,5 C 5,1 km/h (1 Bft)
04.04.2016 12:23 20,4 C 25,4 C 43 % 1010,7 hPa 0,0 mm 10,7 km/h (2 Bft) NW 315 3 min 7,4 C 17,3 km/h (3 Bft)
04.04.2016 12:24 20,4 C 25,4 C 43 % 1010,7 hPa 0,0 mm 10,7 km/h (2 Bft) NW 315 1 min 7,4 C 17,3 km/h (3 Bft)
04.04.2016 12:25 20,4 C 25,4 C 43 % 1010,7 hPa 0,0 mm 10,7 km/h (2 Bft) NW 315 1 min 7,4 C 17,3 km/h (3 Bft)
04.04.2016 12:30 20,4 C 25,3 C 44 % 1010,9 hPa 0,0 mm 10,4 km/h (2 Bft) W 270 5 min 7,7 C 15,2 km/h (3 Bft)
04.04.2016 12:35 19,9 C 24,0 C 43 % 1010,9 hPa 0,0 mm 10,4 km/h (2 Bft) NO 45 5 min 6,9 C 21,5 km/h (4 Bft)
04.04.2016 12:40 20,2 C 24,5 C 43 % 1010,9 hPa 0,0 mm 9,5 km/h (2 Bft) NW 315 5 min 7,2 C 6,0 km/h (2 Bft)
04.04.2016 12:45 20,7 C 24,8 C 43 % 1010,9 hPa 0,0 mm 8,9 km/h (2 Bft) W-NW 292 5 min 7,7 C 12,5 km/h (3 Bft)
04.04.2016 12:50 20,9 C 25,0 C 43 % 1011,3 hPa 0,0 mm 8,9 km/h (2 Bft) NW 315 5 min 7,8 C 11,3 km/h (2 Bft)
04.04.2016 12:55 21,0 C 25,1 C 42 % 1011,3 hPa 0,0 mm 8,3 km/h (2 Bft) N-NO 22 5 min 7,6 C 11,0 km/h (2 Bft)
04.04.2016 13:00 21,0 C 25,3 C 42 % 1011,3 hPa 0,0 mm 8,9 km/h (2 Bft) N-NO 22 5 min 7,6 C 17,6 km/h (3 Bft)
04.04.2016 13:05 20,7 C 24,8 C 43 % 1011,3 hPa 0,0 mm 12,2 km/h (2 Bft) N-NW 337 5 min 7,7 C 24,1 km/h (4 Bft)
04.04.2016 13:10 20,8 C 24,7 C 42 % 1011,3 hPa 0,0 mm 12,2 km/h (2 Bft) N-NW 337 5 min 7,4 C 11,6 km/h (2 Bft)
04.04.2016 13:15 20,8 C 24,5 C 42 % 1011,3 hPa 0,0 mm 11,0 km/h (2 Bft) NO 45 0 min 7,4 C 15,5 km/h (3 Bft)
04.04.2016 13:20 20,6 C 24,2 C 43 % 1011,3 hPa 0,0 mm 9,5 km/h (2 Bft) N 360 0 min 7,6 C 8,9 km/h (2 Bft)
04.04.2016 13:25 20,8 C 23,7 C 42 % 1011,3 hPa 0,0 mm 9,2 km/h (2 Bft) N-NO 22 0 min 7,4 C 11,6 km/h (2 Bft)
04.04.2016 13:30 21,0 C 23,4 C 43 % 1011,4 hPa 0,0 mm 9,2 km/h (2 Bft) N-NW 337 0 min 7,9 C 20,9 km/h (4 Bft)
04.04.2016 13:35 20,8 C 22,8 C 43 % 1011,4 hPa 0,0 mm 10,7 km/h (2 Bft) NW 315 0 min 7,8 C 20,3 km/h (4 Bft)
04.04.2016 13:40 20,9 C 22,6 C 43 % 1011,4 hPa 0,0 mm 12,8 km/h (3 Bft) N-NO 22 0 min 7,8 C 23,8 km/h (4 Bft)
04.04.2016 13:45 20,4 C 22,2 C 43 % 1011,4 hPa 0,0 mm 10,7 km/h (2 Bft) N-NO 22 0 min 7,4 C 13,4 km/h (3 Bft)
04.04.2016 13:50 19,9 C 21,6 C 43 % 1011,2 hPa 0,0 mm 10,4 km/h (2 Bft) W-NW 292 0 min 6,9 C 7,5 km/h (2 Bft)
04.04.2016 13:55 19,8 C 21,0 C 44 % 1011,2 hPa 0,0 mm 8,9 km/h (2 Bft) N-NW 337 0 min 7,2 C 12,8 km/h (3 Bft)
04.04.2016 14:00 19,9 C 21,3 C 44 % 1011,2 hPa 0,0 mm 8,0 km/h (2 Bft) NW 315 0 min 7,3 C 9,8 km/h (2 Bft)
04.04.2016 14:05 19,3 C 20,5 C 45 % 1011,2 hPa 0,0 mm 8,9 km/h (2 Bft) NW 315 0 min 7,1 C 0,0 km/h (0 Bft)
04.04.2016 14:10 19,2 C 20,1 C 45 % 1010,8 hPa 0,0 mm 8,9 km/h (2 Bft) N-NO 22 0 min 7,0 C 8,3 km/h (2 Bft)
04.04.2016 14:15 20,2 C 22,4 C 45 % 1010,8 hPa 0,0 mm 6,9 km/h (2 Bft) NW 315 0 min 7,9 C 12,2 km/h (2 Bft)
04.04.2016 14:20 20,3 C 23,2 C 46 % 1010,8 hPa 0,0 mm 8,0 km/h (2 Bft) N-NO 22 0 min 8,3 C 14,9 km/h (3 Bft)
04.04.2016 14:25 19,9 C 22,6 C 45 % 1010,8 hPa 0,0 mm 11,0 km/h (2 Bft) NO 45 5 min 7,6 C 10,7 km/h (2 Bft)
04.04.2016 14:30 19,4 C 21,3 C 45 % 1010,2 hPa 0,0 mm 8,9 km/h (2 Bft) N-NW 337 0 min 7,2 C 5,7 km/h (1 Bft)
04.04.2016 14:35 20,1 C 22,0 C 46 % 1010,2 hPa 0,0 mm 7,2 km/h (2 Bft) NW 315 0 min 8,1 C 17,9 km/h (3 Bft)
04.04.2016 14:40 20,3 C 22,8 C 45 % 1010,2 hPa 0,0 mm 7,5 km/h (2 Bft) W-SW 247 0 min 8,0 C 5,7 km/h (1 Bft)
04.04.2016 14:45 20,8 C 23,7 C 45 % 1010,2 hPa 0,0 mm 7,5 km/h (2 Bft) NW 315 0 min 8,4 C 10,4 km/h (2 Bft)
04.04.2016 14:50 20,9 C 23,7 C 44 % 1009,9 hPa 0,0 mm 7,7 km/h (2 Bft) N-NW 337 0 min 8,2 C 16,1 km/h (3 Bft)
04.04.2016 14:55 20,8 C 23,7 C 44 % 1009,9 hPa 0,0 mm 11,6 km/h (2 Bft) N 360 0 min 8,1 C 10,7 km/h (2 Bft)
04.04.2016 15:00 20,4 C 23,8 C 44 % 1009,9 hPa 0,0 mm 10,7 km/h (2 Bft) N-NW 337 5 min 7,7 C 9,5 km/h (2 Bft)
04.04.2016 15:05 20,2 C 22,6 C 44 % 1009,9 hPa 0,0 mm 9,2 km/h (2 Bft) NW 315 0 min 7,6 C 9,8 km/h (2 Bft)
04.04.2016 15:10 20,3 C 22,6 C 45 % 1009,8 hPa 0,0 mm 8,9 km/h (2 Bft) N 360 0 min 8,0 C 11,0 km/h (2 Bft)
04.04.2016 15:15 21,1 C 24,3 C 44 % 1009,8 hPa 0,0 mm 8,6 km/h (2 Bft) N-NO 22 0 min 8,4 C 23,8 km/h (4 Bft)
04.04.2016 15:20 20,8 C 24,6 C 45 % 1009,8 hPa 0,0 mm 9,8 km/h (2 Bft) N-NO 22 5 min 8,4 C 10,4 km/h (2 Bft)
04.04.2016 15:23 20,8 C 24,6 C 44 % 1009,8 hPa 0,0 mm 9,2 km/h (2 Bft) SO 135 3 min 8,1 C 0,0 km/h (0 Bft)
04.04.2016 15:25 20,8 C 24,6 C 44 % 1009,8 hPa 0,0 mm 9,2 km/h (2 Bft) SO 135 2 min 8,1 C 0,0 km/h (0 Bft)
04.04.2016 15:30 20,3 C 24,5 C 43 % 1009,5 hPa 0,0 mm 6,3 km/h (2 Bft) O-NO 67 5 min 7,3 C 5,1 km/h (1 Bft)
04.04.2016 15:35 20,1 C 23,0 C 44 % 1009,5 hPa 0,0 mm 5,4 km/h (1 Bft) N-NO 22 5 min 7,5 C 7,5 km/h (2 Bft)
04.04.2016 15:40 20,7 C 23,6 C 44 % 1009,5 hPa 0,0 mm 6,0 km/h (2 Bft) NO 45 0 min 8,0 C 5,4 km/h (1 Bft)
04.04.2016 15:45 21,2 C 24,8 C 43 % 1009,5 hPa 0,0 mm 7,5 km/h (2 Bft) NW 315 5 min 8,1 C 14,0 km/h (3 Bft)
04.04.2016 15:50 21,3 C 25,0 C 43 % 1009,3 hPa 0,0 mm 8,6 km/h (2 Bft) NO 45 5 min 8,2 C 9,2 km/h (2 Bft)
04.04.2016 15:55 21,0 C 24,8 C 43 % 1009,3 hPa 0,0 mm 8,9 km/h (2 Bft) N-NO 22 5 min 7,9 C 10,1 km/h (2 Bft)
04.04.2016 16:00 20,8 C 24,8 C 42 % 1009,3 hPa 0,0 mm 8,3 km/h (2 Bft) O 90 5 min 7,4 C 11,9 km/h (2 Bft)
04.04.2016 16:05 20,6 C 24,6 C 42 % 1009,3 hPa 0,0 mm 8,6 km/h (2 Bft) O-NO 67 5 min 7,2 C 7,5 km/h (2 Bft)
04.04.2016 16:10 20,2 C 23,6 C 43 % 1009,2 hPa 0,0 mm 8,0 km/h (2 Bft) N-NW 337 5 min 7,2 C 3,3 km/h (1 Bft)
04.04.2016 16:15 20,1 C 23,2 C 43 % 1009,2 hPa 0,0 mm 6,3 km/h (2 Bft) N-NO 22 5 min 7,1 C 3,6 km/h (1 Bft)
04.04.2016 16:20 19,9 C 22,6 C 43 % 1009,2 hPa 0,0 mm 6,6 km/h (2 Bft) O-NO 67 0 min 6,9 C 10,1 km/h (2 Bft)
04.04.2016 16:25 19,9 C 22,6 C 45 % 1009,2 hPa 0,0 mm 7,7 km/h (2 Bft) N-NO 22 0 min 7,6 C 14,6 km/h (3 Bft)
04.04.2016 16:30 19,8 C 22,3 C 44 % 1008,9 hPa 0,0 mm 8,6 km/h (2 Bft) N-NO 22 0 min 7,2 C 19,1 km/h (3 Bft)
04.04.2016 16:35 19,6 C 21,9 C 44 % 1008,9 hPa 0,0 mm 10,4 km/h (2 Bft) N-NO 22 0 min 7,0 C 7,5 km/h (2 Bft)
04.04.2016 16:40 19,5 C 21,4 C 44 % 1008,9 hPa 0,0 mm 9,5 km/h (2 Bft) O-SO 112 0 min 6,9 C 6,0 km/h (2 Bft)
04.04.2016 16:45 19,4 C 20,9 C 44 % 1008,9 hPa 0,0 mm 6,6 km/h (2 Bft) NO 45 0 min 6,8 C 7,5 km/h (2 Bft)
04.04.2016 16:50 19,3 C 20,5 C 45 % 1008,6 hPa 0,0 mm 6,0 km/h (2 Bft) NW 315 0 min 7,1 C 8,0 km/h (2 Bft)
04.04.2016 16:55 19,1 C 20,1 C 45 % 1008,6 hPa 0,0 mm 7,5 km/h (2 Bft) O-NO 67 0 min 6,9 C 9,2 km/h (2 Bft)
04.04.2016 17:00 19,1 C 20,3 C 46 % 1008,6 hPa 0,0 mm 9,2 km/h (2 Bft) O-NO 67 0 min 7,2 C 16,4 km/h (3 Bft)
04.04.2016 17:05 19,3 C 20,7 C 46 % 1008,6 hPa 0,0 mm 10,7 km/h (2 Bft) N-NO 22 0 min 7,4 C 14,9 km/h (3 Bft)
04.04.2016 17:10 19,3 C 20,8 C 46 % 1008,6 hPa 0,0 mm 11,9 km/h (2 Bft) N-NO 22 0 min 7,4 C 12,5 km/h (3 Bft)
04.04.2016 17:15 19,1 C 20,5 C 47 % 1008,6 hPa 0,0 mm 13,1 km/h (3 Bft) O-NO 67 0 min 7,5 C 19,7 km/h (3 Bft)
04.04.2016 17:20 18,9 C 20,1 C 48 % 1008,6 hPa 0,0 mm 14,3 km/h (3 Bft) N-NO 22 0 min 7,6 C 7,2 km/h (2 Bft)
04.04.2016 17:25 18,8 C 19,8 C 49 % 1008,6 hPa 0,0 mm 14,3 km/h (3 Bft) O-NO 67 0 min 7,9 C 16,4 km/h (3 Bft)
04.04.2016 17:30 18,8 C 19,7 C 49 % 1008,4 hPa 0,0 mm 11,3 km/h (2 Bft) NO 45 0 min 7,9 C 16,1 km/h (3 Bft)
04.04.2016 17:35 18,8 C 19,7 C 49 % 1008,4 hPa 0,0 mm 13,1 km/h (3 Bft) NO 45 0 min 7,9 C 22,7 km/h (4 Bft)
04.04.2016 17:40 18,5 C 19,9 C 49 % 1008,4 hPa 0,0 mm 14,3 km/h (3 Bft) NO 45 0 min 7,6 C 22,7 km/h (4 Bft)
04.04.2016 17:45 18,5 C 20,0 C 49 % 1008,4 hPa 0,0 mm 11,9 km/h (2 Bft) NW 315 0 min 7,6 C 16,1 km/h (3 Bft)
04.04.2016 17:50 18,4 C 19,6 C 50 % 1008,4 hPa 0,0 mm 11,3 km/h (2 Bft) O-NO 67 0 min 7,8 C 14,9 km/h (3 Bft)
04.04.2016 17:55 18,3 C 19,1 C 50 % 1008,4 hPa 0,0 mm 11,0 km/h (2 Bft) NO 45 0 min 7,7 C 25,3 km/h (4 Bft)
04.04.2016 18:00 18,2 C 19,3 C 50 % 1008,4 hPa 0,0 mm 10,1 km/h (2 Bft) N-NO 22 0 min 7,6 C 11,6 km/h (2 Bft)
04.04.2016 18:05 18,2 C 19,1 C 50 % 1008,4 hPa 0,0 mm 10,7 km/h (2 Bft) NO 45 0 min 7,6 C 21,5 km/h (4 Bft)
04.04.2016 18:10 18,0 C 18,9 C 50 % 1008,2 hPa 0,0 mm 12,2 km/h (2 Bft) N 360 0 min 7,4 C 16,7 km/h (3 Bft)
04.04.2016 18:15 17,8 C 18,5 C 51 % 1008,2 hPa 0,0 mm 12,2 km/h (2 Bft) N-NO 22 0 min 7,5 C 10,7 km/h (2 Bft)
04.04.2016 18:20 17,8 C 18,5 C 51 % 1008,2 hPa 0,0 mm 11,0 km/h (2 Bft) O-NO 67 0 min 7,5 C 15,5 km/h (3 Bft)
04.04.2016 18:23 17,6 C 18,3 C 52 % 1008,2 hPa 0,0 mm 11,0 km/h (2 Bft) NO 45 0 min 7,6 C 13,7 km/h (3 Bft)
04.04.2016 18:26 17,6 C 18,3 C 52 % 1008,2 hPa 0,0 mm 11,0 km/h (2 Bft) NO 45 0 min 7,6 C 13,7 km/h (3 Bft)
04.04.2016 18:30 17,5 C 18,3 C 52 % 1008,1 hPa 0,0 mm 10,4 km/h (2 Bft) O-NO 67 0 min 7,5 C 3,6 km/h (1 Bft)
04.04.2016 18:35 17,3 C 17,8 C 53 % 1008,1 hPa 0,0 mm 9,2 km/h (2 Bft) O-NO 67 0 min 7,6 C 7,2 km/h (2 Bft)
04.04.2016 18:40 16,8 C 17,4 C 54 % 1008,1 hPa 0,0 mm 7,7 km/h (2 Bft) N-NW 337 0 min 7,4 C 3,0 km/h (1 Bft)
04.04.2016 18:45 16,1 C 16,6 C 55 % 1008,1 hPa 0,0 mm 4,8 km/h (1 Bft) O 90 0 min 7,1 C 7,7 km/h (2 Bft)
04.04.2016 18:50 15,9 C 16,2 C 57 % 1008,1 hPa 0,0 mm 3,9 km/h (1 Bft) N-NO 22 0 min 7,4 C 6,9 km/h (2 Bft)
04.04.2016 18:55 15,8 C 15,9 C 57 % 1008,1 hPa 0,0 mm 4,5 km/h (1 Bft) O-SO 112 0 min 7,3 C 0,0 km/h (0 Bft)
04.04.2016 19:00 15,6 C 15,6 C 58 % 1008,1 hPa 0,0 mm 2,4 km/h (1 Bft) NO 45 0 min 7,4 C 3,6 km/h (1 Bft)
04.04.2016 19:05 15,3 C 15,2 C 59 % 1008,1 hPa 0,0 mm 1,2 km/h (1 Bft) O-SO 112 0 min 7,3 C 3,9 km/h (1 Bft)
04.04.2016 19:10 15,0 C 15,0 C 58 % 1008,2 hPa 0,0 mm 1,5 km/h (1 Bft) O-NO 67 0 min 6,8 C 0,0 km/h (0 Bft)
04.04.2016 19:15 14,6 C 14,6 C 59 % 1008,2 hPa 0,0 mm 0,6 km/h (0 Bft) SO 135 0 min 6,7 C 3,3 km/h (1 Bft)
04.04.2016 19:20 14,8 C 14,6 C 61 % 1008,2 hPa 0,0 mm 0,0 km/h (0 Bft) SO 135 0 min 7,4 C 0,0 km/h (0 Bft)
04.04.2016 19:25 14,2 C 14,1 C 62 % 1008,2 hPa 0,0 mm 0,0 km/h (0 Bft) O-SO 112 0 min 7,0 C 0,0 km/h (0 Bft)
04.04.2016 19:30 14,0 C 13,9 C 61 % 1008,2 hPa 0,0 mm 0,0 km/h (0 Bft) SO 135 0 min 6,6 C 0,0 km/h (0 Bft)
04.04.2016 19:35 13,9 C 13,7 C 62 % 1008,2 hPa 0,0 mm 0,0 km/h (0 Bft) O-SO 112 0 min 6,7 C 0,0 km/h (0 Bft)
04.04.2016 19:40 14,1 C 13,8 C 63 % 1008,2 hPa 0,0 mm 0,3 km/h (0 Bft) SO 135 0 min 7,2 C 4,5 km/h (1 Bft)
04.04.2016 19:45 14,2 C 13,9 C 63 % 1008,2 hPa 0,0 mm 1,8 km/h (1 Bft) SO 135 0 min 7,3 C 5,4 km/h (1 Bft)
04.04.2016 19:50 14,1 C 13,9 C 63 % 1008,3 hPa 0,0 mm 3,9 km/h (1 Bft) O-SO 112 0 min 7,2 C 6,6 km/h (2 Bft)
04.04.2016 19:55 14,3 C 14,0 C 63 % 1008,3 hPa 0,0 mm 3,6 km/h (1 Bft) O 90 0 min 7,4 C 0,0 km/h (0 Bft)
04.04.2016 20:00 14,2 C 14,0 C 63 % 1008,3 hPa 0,0 mm 2,1 km/h (1 Bft) S-SO 157 0 min 7,3 C 3,6 km/h (1 Bft)
04.04.2016 20:05 13,5 C 13,5 C 65 % 1008,3 hPa 0,0 mm 1,5 km/h (1 Bft) N-NW 337 0 min 7,1 C 0,0 km/h (0 Bft)
04.04.2016 20:10 12,6 C 13,0 C 64 % 1008,2 hPa 0,0 mm 1,5 km/h (1 Bft) SW 225 0 min 6,0 C 0,0 km/h (0 Bft)
04.04.2016 20:15 12,1 C 12,1 C 66 % 1008,2 hPa 0,0 mm 0,0 km/h (0 Bft) W 270 0 min 5,9 C 0,0 km/h (0 Bft)
04.04.2016 20:20 12,0 C 11,9 C 66 % 1008,2 hPa 0,0 mm 0,0 km/h (0 Bft) N-NW 337 0 min 5,8 C 0,0 km/h (0 Bft)
04.04.2016 20:25 12,0 C 11,8 C 71 % 1008,2 hPa 0,0 mm 0,0 km/h (0 Bft) O-SO 112 0 min 6,9 C 0,0 km/h (0 Bft)
04.04.2016 20:30 12,1 C 11,8 C 70 % 1008,2 hPa 0,0 mm 0,0 km/h (0 Bft) S-SO 157 0 min 6,8 C 0,0 km/h (0 Bft)
04.04.2016 20:35 11,9 C 11,8 C 68 % 1008,2 hPa 0,0 mm 0,0 km/h (0 Bft) O-SO 112 0 min 6,2 C 0,0 km/h (0 Bft)
04.04.2016 20:40 12,0 C 11,9 C 69 % 1008,2 hPa 0,0 mm 0,3 km/h (0 Bft) S 180 0 min 6,5 C 3,0 km/h (1 Bft)
04.04.2016 20:45 11,9 C 12,1 C 70 % 1008,2 hPa 0,0 mm 1,2 km/h (1 Bft) SO 135 0 min 6,6 C 4,8 km/h (1 Bft)
04.04.2016 20:50 12,1 C 12,2 C 70 % 1008,5 hPa 0,0 mm 3,0 km/h (1 Bft) SO 135 0 min 6,8 C 6,0 km/h (2 Bft)
04.04.2016 20:55 12,2 C 12,3 C 71 % 1008,5 hPa 0,0 mm 5,1 km/h (1 Bft) SO 135 0 min 7,1 C 4,5 km/h (1 Bft)
04.04.2016 21:00 12,0 C 12,2 C 71 % 1008,5 hPa 0,0 mm 5,1 km/h (1 Bft) SO 135 0 min 6,9 C 6,0 km/h (2 Bft)
04.04.2016 21:05 11,7 C 11,9 C 72 % 1008,5 hPa 0,0 mm 3,3 km/h (1 Bft) SO 135 0 min 6,8 C 4,2 km/h (1 Bft)
04.04.2016 21:10 11,8 C 12,0 C 71 % 1008,2 hPa 0,0 mm 2,1 km/h (1 Bft) O-SO 112 0 min 6,7 C 0,0 km/h (0 Bft)
04.04.2016 21:15 11,5 C 11,5 C 71 % 1008,2 hPa 0,0 mm 0,6 km/h (0 Bft) N-NW 337 0 min 6,4 C 0,0 km/h (0 Bft)
04.04.2016 21:20 10,8 C 11,1 C 71 % 1008,2 hPa 0,0 mm 0,0 km/h (0 Bft) NW 315 0 min 5,8 C 0,0 km/h (0 Bft)
04.04.2016 21:25 10,7 C 10,7 C 72 % 1008,2 hPa 0,0 mm 0,0 km/h (0 Bft) O-NO 67 0 min 5,9 C 0,0 km/h (0 Bft)
04.04.2016 21:27 10,7 C 10,7 C 72 % 1008,2 hPa 0,0 mm 0,0 km/h (0 Bft) O-NO 67 0 min 5,9 C 0,0 km/h (0 Bft)
04.04.2016 21:30 10,7 C 10,6 C 72 % 1008,1 hPa 0,0 mm 0,0 km/h (0 Bft) O-NO 67 0 min 5,9 C 0,0 km/h (0 Bft)
04.04.2016 21:35 10,4 C 10,3 C 72 % 1008,1 hPa 0,0 mm 0,0 km/h (0 Bft) N-NO 22 0 min 5,6 C 0,0 km/h (0 Bft)
04.04.2016 21:40 10,3 C 10,2 C 72 % 1008,1 hPa 0,0 mm 0,0 km/h (0 Bft) NO 45 0 min 5,5 C 0,0 km/h (0 Bft)
04.04.2016 21:45 10,7 C 10,4 C 75 % 1008,1 hPa 0,0 mm 0,3 km/h (0 Bft) S-SO 157 0 min 6,5 C 3,9 km/h (1 Bft)
04.04.2016 21:50 11,3 C 10,9 C 76 % 1008,2 hPa 0,0 mm 0,9 km/h (0 Bft) O-SO 112 0 min 7,2 C 0,0 km/h (0 Bft)
04.04.2016 21:55 11,4 C 11,2 C 73 % 1008,2 hPa 0,0 mm 1,2 km/h (1 Bft) S-SO 157 0 min 6,7 C 0,0 km/h (0 Bft)
04.04.2016 22:00 10,9 C 10,8 C 74 % 1008,2 hPa 0,0 mm 0,3 km/h (0 Bft) O-NO 67 0 min 6,5 C 0,0 km/h (0 Bft)
04.04.2016 22:05 10,3 C 10,3 C 75 % 1008,2 hPa 0,0 mm 0,0 km/h (0 Bft) O-NO 67 0 min 6,1 C 0,0 km/h (0 Bft)
04.04.2016 22:10 10,3 C 10,2 C 74 % 1008,1 hPa 0,0 mm 0,0 km/h (0 Bft) N-NW 337 0 min 5,9 C 0,0 km/h (0 Bft)
04.04.2016 22:15 10,2 C 10,1 C 76 % 1008,1 hPa 0,0 mm 0,3 km/h (0 Bft) O-SO 112 0 min 6,2 C 0,0 km/h (0 Bft)
04.04.2016 22:20 10,3 C 10,1 C 77 % 1008,1 hPa 0,0 mm 0,3 km/h (0 Bft) S-SO 157 0 min 6,4 C 0,0 km/h (0 Bft)
04.04.2016 22:25 10,6 C 10,3 C 77 % 1008,1 hPa 0,0 mm 0,3 km/h (0 Bft) O 90 0 min 6,7 C 0,0 km/h (0 Bft)
04.04.2016 22:30 10,7 C 10,4 C 77 % 1007,9 hPa 0,0 mm 0,0 km/h (0 Bft) O-NO 67 0 min 6,8 C 0,0 km/h (0 Bft)
04.04.2016 22:35 10,2 C 10,0 C 76 % 1007,9 hPa 0,0 mm 0,3 km/h (0 Bft) W 270 0 min 6,2 C 0,0 km/h (0 Bft)
04.04.2016 22:40 10,3 C 10,1 C 76 % 1007,9 hPa 0,0 mm 0,3 km/h (0 Bft) S-SO 157 0 min 6,3 C 0,0 km/h (0 Bft)
04.04.2016 22:45 10,7 C 10,3 C 78 % 1007,9 hPa 0,0 mm 0,0 km/h (0 Bft) O 90 0 min 7,0 C 0,0 km/h (0 Bft)
04.04.2016 22:50 10,7 C 10,4 C 77 % 1007,8 hPa 0,0 mm 0,0 km/h (0 Bft) W-SW 247 0 min 6,8 C 0,0 km/h (0 Bft)
04.04.2016 22:55 10,2 C 10,0 C 76 % 1007,8 hPa 0,0 mm 0,0 km/h (0 Bft) O-NO 67 0 min 6,2 C 0,0 km/h (0 Bft)
04.04.2016 23:00 9,8 C 9,7 C 76 % 1007,8 hPa 0,0 mm 0,0 km/h (0 Bft) O-NO 67 0 min 5,8 C 0,0 km/h (0 Bft)
04.04.2016 23:05 9,9 C 9,7 C 76 % 1007,8 hPa 0,0 mm 1,2 km/h (1 Bft) SO 135 0 min 5,9 C 5,4 km/h (1 Bft)
04.04.2016 23:10 10,3 C 10,1 C 76 % 1007,7 hPa 0,0 mm 1,2 km/h (1 Bft) NO 45 0 min 6,3 C 0,0 km/h (0 Bft)
04.04.2016 23:15 10,6 C 10,4 C 72 % 1007,7 hPa 0,0 mm 0,6 km/h (0 Bft) O 90 0 min 5,8 C 0,0 km/h (0 Bft)
04.04.2016 23:20 10,3 C 10,1 C 74 % 1007,7 hPa 0,0 mm 0,0 km/h (0 Bft) O-NO 67 0 min 5,9 C 0,0 km/h (0 Bft)
04.04.2016 23:25 10,7 C 10,6 C 71 % 1007,7 hPa 0,0 mm 0,0 km/h (0 Bft) O-NO 67 0 min 5,7 C 0,0 km/h (0 Bft)
04.04.2016 23:30 10,8 C 10,6 C 72 % 1007,5 hPa 0,0 mm 0,0 km/h (0 Bft) W 270 0 min 6,0 C 0,0 km/h (0 Bft)
04.04.2016 23:35 10,9 C 10,7 C 70 % 1007,5 hPa 0,0 mm 0,0 km/h (0 Bft) NO 45 0 min 5,6 C 0,0 km/h (0 Bft)
04.04.2016 23:40 10,7 C 10,6 C 69 % 1007,5 hPa 0,0 mm 0,0 km/h (0 Bft) NO 45 0 min 5,2 C 0,0 km/h (0 Bft)
04.04.2016 23:45 10,7 C 10,7 C 68 % 1007,5 hPa 0,0 mm 0,0 km/h (0 Bft) S 180 0 min 5,0 C 0,0 km/h (0 Bft)
04.04.2016 23:50 10,9 C 10,8 C 67 % 1007,4 hPa 0,0 mm 0,0 km/h (0 Bft) NO 45 0 min 5,0 C 0,0 km/h (0 Bft)
04.04.2016 23:55 10,5 C 10,5 C 66 % 1007,4 hPa 0,0 mm 0,0 km/h (0 Bft) O-NO 67 0 min 4,4 C 0,0 km/h (0 Bft)
_ Min-Zeit 23:00 23:05 16:05 23:55 - 23:55 - - - 01:30 23:55
Minimum _ 9,8 C 9,7 C 42 % 1007,4 hPa - 0,0 km/h (0 Bft) - - - 1,5 C 0,0 km/h (0 Bft)
_ Max-Zeit 15:50 12:25 22:45 11:05 23:55 17:40 - - 16:15 15:20 17:55
Maximum _ 21,3 C 25,4 C 78 % 1011,9 hPa 0,0 mm 14,3 km/h
NO (3 Bft)
- - 5 min 8,4 C 25,3 km/h
NO (4 Bft)
Durchschnitt _ 14,9 C 16,2 C 54 % 1009,5 hPa #0,0 mm 3,5 km/h (1 Bft) N-NO - #4:25 h 5,4 C 4,6 km/h (1 Bft)